Tiempo atmosférico en la estación meteorológica de Villalón De Campos, Valladolid (763 m.)



Fecha
DESCASC
Temp. máxima en grados centígrados (hora)
DESCASC
Temp. mínima en grados centígrados (hora)
DESCASC
Temp. media en grados centígrados
DESCASC
Racha de viento máxima en m/sg (hora)
DESCASC
Velocidad máxima media en intervalos de 10 minutos(hora)
DESCASC
Precipitaciones diarias en mm
DESCASC
Precipitaciones de 00:00 a 06:00 en mm
DESCASC
Precipitaciones de 06:00 a 12:00 en mm
DESCASC
Precipitaciones de 12:00 a 18:00 en mm
DESCASC
Precipitaciones de 18:00 a 24:00 en mm
DESCASC
28-02-2021 12.6 (16:20) 0.5 (07:30) 6.6 10.56 (03:10) 5.28 (10:10) 0 0 0 0 0
27-02-2021 14.9 (16:10) 3.6 (07:40) 9.2 10.28 (12:20) 5.56 (12:30) 0 0 0 0 0
26-02-2021 14.1 (15:20) 6.1 (07:10) 10.1 12.5 (10:40) 6.11 (10:40) 0 0 0 0 0
25-02-2021 12.6 (14:40) 3.9 (00:00) 8.3 7.78 (22:50) 3.61 (21:00) 0 0 0 0 0
24-02-2021 16.5 (16:40) -2.1 (-00:0) 7.2 8.33 (15:00) 5.28 (15:00) 0 0 0 0 0
23-02-2021 15.1 (17:10) -3 (-00:0) 6.1 6.94 (13:50) 3.61 (15:50) 0 0 0 0 0
22-02-2021 12.2 (18:10) -0.3 (00:00) 5.9 8.89 (00:10) 6.39 (00:10) 1 1 0 0 0
21-02-2021 11.9 (12:40) 2.6 (00:00) 7.2 10 (13:10) 7.22 (22:50) 9.6 0 0 2.6 7
20-02-2021 14.9 (16:00) 2.2 (00:00) 8.5 12.5 (16:10) 7.5 (11:40) 0 0 0 0 0
19-02-2021 14.8 (14:40) 5.1 (00:00) 10 12.78 (15:00) 8.61 (14:50) 2.2 2.2 0 0 0
18-02-2021 12.3 (15:00) 4.9 (00:00) 8.6 16.94 (11:10) 11.11 (15:00) 3.6 0 0 2.8 0.8
17-02-2021 12.5 (16:10) 4.6 (00:00) 8.5 10 (13:50) 7.78 (14:00) 0.2 0 0 0.2 0
16-02-2021 12 (15:20) -0.5 (-00:0) 5.8 15.56 (13:10) 10.83 (12:50) 0.4 0 0 0.4 0
15-02-2021 17.8 (17:00) 0.2 (00:00) 9 5.28 (17:10) 3.33 (17:10) 0 0 0 0 0
14-02-2021 16 (16:10) 0.5 (00:00) 8.3 4.72 (16:50) 3.06 (17:00) 0 0 0 0 0
13-02-2021 13.7 (15:50) 0.8 (00:00) 7.2 6.67 (16:10) 4.44 (14:40) 0 0 0 0 0
12-02-2021 12.7 (15:00) 3.5 (00:00) 8.1 13.06 (01:50) 8.89 (02:00) 4.4 4.4 0 0 0
11-02-2021 14.2 (15:20) 5.8 (00:00) 10 10.56 (17:10) 7.22 (17:00) 0.4 0.4 0 0 0
10-02-2021 10.9 (16:20) 1 (00:00) 5.9 17.5 (03:10) 10.28 (02:50) 1 1 0 0 0
09-02-2021 6.4 (10:10) 3.2 (00:00) 4.8 22.5 (11:40) 16.39 (11:40) 12 1.8 6.2 3 1
08-02-2021 8.1 (14:10) 3.2 (00:00) 5.7 18.06 (10:10) 11.67 (15:00) 2.4 2.4 0 0 0
07-02-2021 6.4 (11:20) -0.5 (-00:0) 3 13.33 (20:10) 8.89 (18:30) 0.6 0 0 0.4 0.2
06-02-2021 7.9 (00:00) 3.7 (00:00) 5.8 9.17 (00:10) 4.72 (00:30) 9.8 7.8 1.2 0.6 0.2
05-02-2021 11.8 (16:20) 4.4 (00:00) 8.1 10.83 (20:50) 5.28 (20:40) 3.6 2.4 1.2 0 0
04-02-2021 7.1 (03:10) 4.8 (00:00) 6 5.28 (12:50) 3.89 (12:50) 12.8 0 2 10 0.8
03-02-2021 11.6 (15:00) 6.2 (00:00) 8.9 15.28 (06:10) 11.11 (07:20) 0 0 0 0 0
02-02-2021 11.8 (14:20) 7.8 (08:50) 9.8 17.22 (13:10) 10.83 (14:00) 0.2 0 0 0.2 0
01-02-2021 13.8 (16:10) 4.9 (00:00) 9.4 16.67 (15:10) 11.39 (12:40) 0 0 0 0 0

Gráficas

Temp. máximas Temp. mínimas Temp. medias Precipitaciones Rachas de viento máximas Velocidades máximas media en intervalos de 10 minutos

Datos horarios

Fecha y hora oficial Temperatura (ºC) Velocidad del viento (km/h) Dirección del viento Racha (km/h) Dirección de racha Precipitación (mm) Presión (hPa) Tendencia (hPa) Humedad (%)
2021-03-02 23:00:00 7.8 4 Este 10 Sudeste 0 -- -- 97
2021-03-02 22:00:00 7.9 9 Oeste 36 Sudoeste 2.4 -- -- 97
2021-03-02 21:00:00 9.3 0 Calma 5 Noroeste 0 -- -- 88
2021-03-02 20:00:00 9.9 0 Calma 10 Sur 0 -- -- 84
2021-03-02 19:00:00 11.8 3 Oeste 10 Oeste 0 -- -- 75
2021-03-02 18:00:00 13 3 Oeste 15 Sudoeste 0 -- -- 68
2021-03-02 17:00:00 14.2 8 Oeste 23 Oeste 0 -- -- 65
2021-03-02 16:00:00 11.8 17 Oeste 25 Oeste 0 -- -- 78
2021-03-02 15:00:00 13.8 16 Sudoeste 22 Sudoeste 0 -- -- 66
2021-03-02 14:00:00 12.8 9 Oeste 17 Sudoeste 0 -- -- 69
2021-03-02 13:00:00 12.8 9 Sur 20 Sur 0 -- -- 68
2021-03-02 12:00:00 11.6 13 Sur 18 Sur 0 -- -- 76
2021-03-02 11:00:00 10 9 Sudeste 18 Sudeste 0 -- -- 84
2021-03-02 10:00:00 7.2 7 Sudeste 9 Sudeste 0 -- -- 94
2021-03-02 09:00:00 5.6 0 Calma 5 Este 0 -- -- 96
2021-03-02 08:00:00 4.6 3 Este 6 Sudeste 0 -- -- 97
2021-03-02 07:00:00 4.1 3 Sudeste 11 Sudeste 0 -- -- 98
2021-03-02 06:00:00 4.4 8 Sur 15 Sur 0 -- -- 96
2021-03-02 05:00:00 5.2 11 Sur 19 Sudeste 0 -- -- 94
2021-03-02 04:00:00 5.6 8 Sur 15 Sur 0 -- -- 94
2021-03-02 03:00:00 6.6 9 Sur 15 Sudeste 0 -- -- 93
2021-03-02 02:00:00 6.6 7 Sudeste 12 Sudeste 0 -- -- 93
2021-03-02 01:00:00 6.5 6 Este 12 Este 0 -- -- 92
2021-03-02 00:00:00 6.3 9 Sudeste 14 Sudeste 0 -- -- 90
2021-03-01 23:00:00 7 7 Sudeste 14 Sudeste 0 -- -- 89
2021-03-01 22:00:00 8.1 9 Sudeste 13 Sudeste 0 -- -- 86
2021-03-01 21:00:00 7.9 5 Sudeste 14 Sudeste 0 -- -- 87
2021-03-01 20:00:00 8.5 10 Sur 28 Sudeste 0 -- -- 84
2021-03-01 19:00:00 9.3 18 Sur 33 Sur 0 -- -- 77
2021-03-01 18:00:00 11.4 15 Sur 35 Sur 0 -- -- 69
2021-03-01 17:00:00 13.4 21 Sur 33 Sur 0 -- -- 59
2021-03-01 16:00:00 12.2 9 Sudeste 26 Sudeste 0 -- -- 68
2021-03-01 15:00:00 12.8 14 Sudeste 27 Sur 0 -- -- 63
2021-03-01 14:00:00 12.3 16 Sudeste 26 Sudeste 0 -- -- 67
2021-03-01 13:00:00 10.4 14 Sudeste 28 Sudeste 0 -- -- 73
2021-03-01 12:00:00 10.1 18 Sudeste 32 Sudeste 0 -- -- 75
2021-03-01 11:00:00 7.2 14 Sudeste 47 Sudeste 0 -- -- 87
2021-03-01 10:00:00 6.6 15 Sudeste 32 Sudeste 0 -- -- 87
2021-03-01 09:00:00 5.7 16 Sudeste 24 Sudeste 0 -- -- 90
2021-03-01 08:00:00 5.2 16 Sur 28 Sur 0 -- -- 91
2021-03-01 07:00:00 4.7 13 Sudeste 21 Sudeste 0 -- -- 92
2021-03-01 06:00:00 4.2 10 Sudeste 15 Este 0 -- -- 92
2021-03-01 05:00:00 5.3 6 Este 12 Sudeste 0 -- -- 92
2021-03-01 04:00:00 5.7 7 Sudoeste 25 Sur 0 -- -- 91
2021-03-01 03:00:00 6.7 19 Sur 30 Sudeste 0 -- -- 88
2021-03-01 02:00:00 4.6 8 Sudeste 12 Sudeste 0 -- -- 96
2021-03-01 01:00:00 3.4 3 Este 10 Nordeste 0 -- -- 95
2021-03-01 00:00:00 3.4 4 Este 10 Este 0 -- -- 96
2021-02-28 23:00:00 1.8 3 Nordeste 9 Nordeste 0 -- -- 94
2021-02-28 22:00:00 4 4 Nordeste 9 Nordeste 0 -- -- 91
2021-02-28 21:00:00 4.8 5 Este 16 Nordeste 0 -- -- 88
2021-02-28 20:00:00 6 9 Nordeste 19 Este 0 -- -- 82
2021-02-28 19:00:00 8.4 8 Nordeste 24 Este 0 -- -- 71
2021-02-28 18:00:00 11.2 10 Este 22 Nordeste 0 -- -- 58
2021-02-28 17:00:00 11.6 12 Este 23 Nordeste 0 -- -- 55
2021-02-28 16:00:00 11.9 12 Este 26 Nordeste 0 -- -- 54
2021-02-28 15:00:00 11.6 11 Este 24 Este 0 -- -- 55
2021-02-28 14:00:00 10.4 14 Este 27 Este 0 -- -- 58
2021-02-28 13:00:00 9.8 14 Este 28 Este 0 -- -- 60
2021-02-28 12:00:00 8.5 15 Este 29 Este 0 -- -- 65
2021-02-28 11:00:00 7.2 13 Este 32 Este 0 -- -- 70
2021-02-28 10:00:00 5 17 Este 36 Este 0 -- -- 78
2021-02-28 09:00:00 2.5 12 Este 27 Nordeste 0 -- -- 87
2021-02-28 08:00:00 0.5 10 Este 22 Este 0 -- -- 93
2021-02-28 07:00:00 0.8 14 Nordeste 23 Este 0 -- -- 92
2021-02-28 06:00:00 0.7 9 Este 24 Nordeste 0 -- -- 93
2021-02-28 05:00:00 1 9 Este 18 Nordeste 0 -- -- 93
2021-02-28 04:00:00 1.6 9 Este 38 Este 0 -- -- 89
2021-02-28 03:00:00 2.4 15 Este 33 Este 0 -- -- 86
2021-02-28 02:00:00 2.6 17 Este 31 Este 0 -- -- 85
2021-02-28 01:00:00 3.7 13 Nordeste 28 Nordeste 0 -- -- 71
2021-02-28 00:00:00 4.7 16 Nordeste 32 Nordeste 0 -- -- 61
2021-02-27 23:00:00 5.6 16 Nordeste 31 Nordeste 0 -- -- 54
2021-02-27 22:00:00 6.3 17 Nordeste 29 Nordeste 0 -- -- 54
2021-02-27 21:00:00 6.6 13 Nordeste 27 Este 0 -- -- 59
2021-02-27 20:00:00 8.3 13 Nordeste 28 Este 0 -- -- 65
2021-02-27 19:00:00 10.4 12 Este 28 Este 0 -- -- 61
2021-02-27 18:00:00 13.8 14 Nordeste 29 Este 0 -- -- 49
2021-02-27 17:00:00 14.9 13 Nordeste 27 Este 0 -- -- 49
2021-02-27 16:00:00 14.4 14 Nordeste 31 Este 0 -- -- 56
2021-02-27 15:00:00 13.3 17 Nordeste 32 Este 0 -- -- 62
2021-02-27 14:00:00 12.2 18 Este 34 Este 0 -- -- 66
2021-02-27 13:00:00 11.2 18 Este 37 Nordeste 0 -- -- 69
2021-02-27 12:00:00 10.3 19 Este 36 Nordeste 0 -- -- 70
2021-02-27 11:00:00 9.3 18 Este 35 Este 0 -- -- 75
2021-02-27 10:00:00 7.5 15 Este 29 Este 0 -- -- 83
2021-02-27 09:00:00 5.2 10 Este 22 Nordeste 0 -- -- 91
2021-02-27 08:00:00 3.6 7 Nordeste 18 Nordeste 0 -- -- 96
2021-02-27 07:00:00 3.9 10 Nordeste 21 Nordeste 0 -- -- 94
2021-02-27 06:00:00 4.1 10 Nordeste 27 Nordeste 0 -- -- 94
2021-02-27 05:00:00 4.6 11 Nordeste 26 Nordeste 0 -- -- 94
2021-02-27 04:00:00 5.1 11 Nordeste 23 Nordeste 0 -- -- 94
2021-02-27 03:00:00 5.3 9 Nordeste 24 Nordeste 0 -- -- 93
2021-02-27 02:00:00 5.5 10 Nordeste 20 Este 0 -- -- 93
2021-02-27 01:00:00 5.8 11 Nordeste 23 Nordeste 0 -- -- 92
2021-02-27 00:00:00 6.3 12 Nordeste 21 Este 0 -- -- 90
2021-02-26 23:00:00 6.8 10 Nordeste 17 Nordeste 0 -- -- 89
2021-02-26 22:00:00 7.4 10 Nordeste 22 Este 0 -- -- 88
2021-02-26 21:00:00 7.8 7 Este 17 Este 0 -- -- 88
2021-02-26 20:00:00 8.8 8 Este 17 Nordeste 0 -- -- 84
2021-02-26 19:00:00 10.5 8 Este 21 Este 0 -- -- 77
2021-02-26 18:00:00 11.9 10 Este 28 Este 0 -- -- 71
2021-02-26 17:00:00 13.3 15 Este 29 Este 0 -- -- 65
2021-02-26 16:00:00 13.5 15 Nordeste 28 Este 0 -- -- 65
2021-02-26 15:00:00 13.9 14 Este 27 Este 0 -- -- 62
2021-02-26 14:00:00 13 16 Este 31 Este 0 -- -- 65
2021-02-26 13:00:00 12.4 15 Este 33 Este 0 -- -- 69
2021-02-26 12:00:00 10.8 18 Este 42 Este 0 -- -- 74
2021-02-26 11:00:00 9.2 21 Nordeste 45 Este 0 -- -- 79
2021-02-26 10:00:00 7.8 15 Este 31 Este 0 -- -- 84
2021-02-26 09:00:00 6.7 14 Este 31 Nordeste 0 -- -- 89
2021-02-26 08:00:00 6.3 13 Este 28 Nordeste 0 -- -- 91
2021-02-26 07:00:00 6.2 12 Nordeste 25 Este 0 -- -- 92
2021-02-26 06:00:00 6.2 11 Este 30 Nordeste 0 -- -- 92
2021-02-26 05:00:00 6.4 13 Este 24 Nordeste 0 -- -- 91
2021-02-26 04:00:00 6.6 11 Este 28 Este 0 -- -- 92
2021-02-26 03:00:00 7 13 Nordeste 31 Nordeste 0 -- -- 91
2021-02-26 02:00:00 7.3 14 Nordeste 27 Nordeste 0 -- -- 88
2021-02-26 01:00:00 7.5 15 Nordeste 29 Nordeste 0 -- -- 87
2021-02-26 00:00:00 7.3 12 Nordeste 24 Este 0 -- -- 88
2021-02-25 23:00:00 7.6 13 Este 28 Nordeste 0 -- -- 87
2021-02-25 22:00:00 7.4 11 Nordeste 23 Nordeste 0 -- -- 89
2021-02-25 21:00:00 7.9 13 Nordeste 26 Nordeste 0 -- -- 88
2021-02-25 20:00:00 9 9 Nordeste 17 Nordeste 0 -- -- 86
2021-02-25 19:00:00 9.9 5 Norte 11 Nordeste 0 -- -- 82
2021-02-25 18:00:00 11.4 8 Nordeste 15 Sudeste 0 -- -- 71
2021-02-25 17:00:00 12 10 Nordeste 14 Nordeste 0 -- -- 68
2021-02-25 16:00:00 12.6 5 Este 12 Nordeste 0 -- -- 65
2021-02-25 15:00:00 12.3 3 Nordeste 14 Este 0 -- -- 66
2021-02-25 14:00:00 12.3 6 Sudeste 17 Sudeste 0 -- -- 65
2021-02-25 13:00:00 10.7 10 Sudeste 20 Sudeste 0 -- -- 75
2021-02-25 12:00:00 10.5 10 Sudeste 19 Este 0 -- -- 75
2021-02-25 11:00:00 8.1 9 Este 17 Este 0 -- -- 85
2021-02-25 10:00:00 6.2 6 Este 13 Este 0 -- -- 91
2021-02-25 09:00:00 5.1 6 Este 12 Este 0 -- -- 92
2021-02-25 08:00:00 4.2 6 Sudeste 13 Sudeste 0 -- -- 93
2021-02-25 07:00:00 3.9 4 Sudeste 12 Este 0 -- -- 93
2021-02-25 06:00:00 4.4 6 Este 15 Sudeste 0 -- -- 95
2021-02-25 05:00:00 4.9 7 Este 12 Este 0 -- -- 93
2021-02-25 04:00:00 5.8 9 Sudeste 14 Sudeste 0 -- -- 91
2021-02-25 03:00:00 6.2 7 Sudeste 12 Sudeste 0 -- -- 93
2021-02-25 02:00:00 6 7 Sur 11 Sur 0 -- -- 93
2021-02-25 01:00:00 5.8 6 Sur 18 Sur 0 -- -- 93
2021-02-25 00:00:00 7.4 6 Sur 17 Sur 0 -- -- 89
2021-02-24 23:00:00 7.7 9 Sudoeste 16 Sudoeste 0 -- -- 88
2021-02-24 22:00:00 6.3 6 Sur 9 Sur 0 -- -- 91
2021-02-24 21:00:00 7 4 Sudeste 9 Sur 0 -- -- 88
2021-02-24 20:00:00 7.9 5 Sudeste 16 Sudeste 0 -- -- 85
2021-02-24 19:00:00 10.7 7 Sur 13 Sur 0 -- -- 76
2021-02-24 18:00:00 15.6 10 Sur 25 Sudoeste 0 -- -- 57
2021-02-24 17:00:00 16.2 14 Sur 28 Sur 0 -- -- 53
2021-02-24 16:00:00 15.9 15 Sur 30 Sur 0 -- -- 53
2021-02-24 15:00:00 15.5 19 Sur 30 Sur 0 -- -- 55
2021-02-24 14:00:00 14.6 18 Sur 29 Sur 0 -- -- 60
2021-02-24 13:00:00 13.8 13 Sur 22 Sur 0 -- -- 60
2021-02-24 12:00:00 12.2 14 Sudeste 22 Sudeste 0 -- -- 67
2021-02-24 11:00:00 9.1 12 Sudeste 19 Sudeste 0 -- -- 79
2021-02-24 10:00:00 6.8 8 Este 14 Este 0 -- -- 84
2021-02-24 09:00:00 2.2 3 Nordeste 9 Este 0 -- -- 99
2021-02-24 08:00:00 -2.1 2 Norte 5 Este 0 -- -- 99
2021-02-24 07:00:00 -1.7 0 Calma 5 Norte 0 -- -- 99
2021-02-24 06:00:00 -1.3 3 Norte 4 Norte 0 -- -- 99
2021-02-24 05:00:00 -1.3 0 Calma 5 Este 0 -- -- 99
2021-02-24 04:00:00 -0.7 0 Calma 3 Este 0 -- -- 98
2021-02-24 03:00:00 -0.1 0 Calma 5 Noroeste 0 -- -- 98
2021-02-24 02:00:00 0.6 0 Calma 9 Sudeste 0 -- -- 95
2021-02-24 01:00:00 2.1 5 Sudeste 10 Sudeste 0 -- -- 94
2021-02-24 00:00:00 2.1 5 Sur 9 Sudeste 0 -- -- 96
2021-02-23 23:00:00 3.3 5 Sudeste 11 Sur 0 -- -- 90
2021-02-23 22:00:00 4.8 8 Sur 14 Sur 0 -- -- 83
2021-02-23 21:00:00 6.1 8 Sur 13 Sur 0 -- -- 80
2021-02-23 20:00:00 6.1 0 Calma 7 Sudoeste 0 -- -- 77
2021-02-23 19:00:00 10.9 0 Calma 10 Oeste 0 -- -- 60
2021-02-23 18:00:00 14.8 6 Sudoeste 18 Sudoeste 0 -- -- 41
2021-02-23 17:00:00 14.8 11 Sudoeste 22 Sudeste 0 -- -- 34
2021-02-23 16:00:00 14.5 9 Sur 21 Sudoeste 0 -- -- 39
2021-02-23 15:00:00 13.1 9 Sur 22 Sur 0 -- -- 44
2021-02-23 14:00:00 12.1 9 Sur 25 Sudeste 0 -- -- 51
2021-02-23 13:00:00 11.5 8 Sur 15 Sur 0 -- -- 53
2021-02-23 12:00:00 9.4 8 Sudeste 15 Sudeste 0 -- -- 66
2021-02-23 11:00:00 7.1 6 Sudeste 14 Este 0 -- -- 72
2021-02-23 10:00:00 4.4 5 Este 10 Sudeste 0 -- -- 81
2021-02-23 09:00:00 0.5 4 Este 10 Este 0 -- -- 94
2021-02-23 08:00:00 -2.3 0 Calma 11 Este 0 -- -- 97
2021-02-23 07:00:00 -2.8 2 Este 7 Noroeste 0 -- -- 98
2021-02-23 06:00:00 -2.6 3 Nordeste 9 Noroeste 0 -- -- 99
2021-02-23 05:00:00 -2.3 0 Calma 6 Este 0 -- -- 97
2021-02-23 04:00:00 -1.2 3 Este 10 Este 0 -- -- 95
2021-02-23 03:00:00 -1.5 0 Calma 3 Este 0 -- -- 94
2021-02-23 02:00:00 -1.2 0 Calma 5 Oeste 0 -- -- 95
2021-02-23 01:00:00 -0.7 0 Calma 3 Nordeste 0 -- -- 95
2021-02-23 00:00:00 -0.3 0 Calma 3 Noroeste 0 -- -- 91
2021-02-22 23:00:00 0.4 0 Calma 5 Oeste 0 -- -- 88
2021-02-22 22:00:00 2 0 Calma 9 Sudoeste 0 -- -- 82
2021-02-22 21:00:00 2.9 4 Sur 12 Sur 0 -- -- 78
2021-02-22 20:00:00 4.8 7 Sur 10 Sur 0 -- -- 72
2021-02-22 19:00:00 7.7 4 Sur 8 Sur 0 -- -- 58
2021-02-22 18:00:00 12.1 5 Sur 24 Oeste 0 -- -- 47
2021-02-22 17:00:00 10.4 13 Oeste 26 Oeste 0 -- -- 58
2021-02-22 16:00:00 10.2 17 Oeste 25 Sudoeste 0 -- -- 61
2021-02-22 15:00:00 10 10 Sudoeste 21 Sudoeste 0 -- -- 57
2021-02-22 14:00:00 9.5 9 Sudoeste 15 Sudoeste 0 -- -- 61
2021-02-22 13:00:00 9.6 4 Oeste 10 Noroeste 0 -- -- 61
2021-02-22 12:00:00 7.6 6 Noroeste 20 Noroeste 0 -- -- 68
2021-02-22 11:00:00 6.1 13 Noroeste 21 Noroeste 0 -- -- 75
2021-02-22 10:00:00 3.9 15 Noroeste 21 Noroeste 0 -- -- 84
2021-02-22 09:00:00 0.8 8 Oeste 18 Oeste 0 -- -- 94
2021-02-22 08:00:00 0.8 12 Oeste 18 Oeste 0 -- -- 93
2021-02-22 07:00:00 1.7 14 Noroeste 22 Noroeste 0 -- -- 92
2021-02-22 06:00:00 2.6 16 Noroeste 22 Oeste 0 -- -- 91
2021-02-22 05:00:00 3.4 16 Oeste 23 Noroeste 0.2 -- -- 92
2021-02-22 04:00:00 3.6 11 Oeste 19 Noroeste 0 -- -- 95
2021-02-22 03:00:00 3.5 8 Noroeste 17 Norte 0.2 -- -- 96
2021-02-22 02:00:00 3.5 12 Noroeste 22 Noroeste 0.4 -- -- 95
2021-02-22 01:00:00 3.4 17 Noroeste 32 Noroeste 0.2 -- -- 96
2021-02-22 00:00:00 3 23 Noroeste 36 Noroeste 0 -- -- 96
2021-02-21 23:00:00 2.6 24 Noroeste 35 Noroeste 0.8 -- -- 97
2021-02-21 22:00:00 3 22 Noroeste 34 Norte 1 -- -- 97
2021-02-21 21:00:00 4.8 13 Noroeste 25 Noroeste 1.6 -- -- 100
2021-02-21 20:00:00 5.1 14 Oeste 22 Sudoeste 2 -- -- 99
2021-02-21 19:00:00 5.4 13 Sudoeste 15 Sudoeste 1.6 -- -- 99
2021-02-21 18:00:00 6.1 13 Sudoeste 18 Sudoeste 1.6 -- -- 98
2021-02-21 17:00:00 6.5 7 Sudoeste 13 Oeste 0.8 -- -- 96
2021-02-21 16:00:00 7.1 12 Sudoeste 19 Sudoeste 0.2 -- -- 90
2021-02-21 15:00:00 8.2 12 Oeste 27 Oeste 0 -- -- 88
2021-02-21 14:00:00 8.2 19 Oeste 36 Sudoeste 0 -- -- 86
2021-02-21 13:00:00 11.6 16 Sur 26 Sur 0 -- -- 67
2021-02-21 12:00:00 10.9 14 Sudeste 30 Sudeste 0 -- -- 70
2021-02-21 11:00:00 10.3 14 Sudeste 31 Sudeste 0 -- -- 71
2021-02-21 10:00:00 9.4 21 Sudeste 33 Sudeste 0 -- -- 71
2021-02-21 09:00:00 7.8 12 Sudeste 21 Este 0 -- -- 77
2021-02-21 08:00:00 6.5 9 Sudeste 20 Sudeste 0 -- -- 82
2021-02-21 07:00:00 6.8 5 Sudeste 18 Sudeste 0 -- -- 81
2021-02-21 06:00:00 7.9 10 Sudeste 17 Sudeste 0 -- -- 75
2021-02-21 05:00:00 7.2 6 Este 18 Sudeste 0 -- -- 73
2021-02-21 04:00:00 7.7 7 Este 28 Sudeste 0 -- -- 64
2021-02-21 03:00:00 7.9 14 Sudeste 22 Sudeste 0 -- -- 61
2021-02-21 02:00:00 8 9 Sudeste 15 Sudeste 0 -- -- 64
2021-02-21 01:00:00 7.8 5 Sudeste 13 Sudeste 0 -- -- 65
2021-02-21 00:00:00 8.9 7 Sudeste 19 Sudeste 0 -- -- 59
2021-02-20 23:00:00 8.5 13 Sudeste 19 Sudeste 0 -- -- 63
2021-02-20 22:00:00 9.3 10 Sudeste 19 Sudeste 0 -- -- 60
2021-02-20 21:00:00 9.3 6 Sudeste 17 Sur 0 -- -- 66
2021-02-20 20:00:00 9.8 8 Sur 18 Sur 0 -- -- 64
2021-02-20 19:00:00 10.5 11 Sur 19 Sur 0 -- -- 64
2021-02-20 18:00:00 12.1 12 Sur 23 Sur 0 -- -- 59
2021-02-20 17:00:00 13.3 13 Sur 45 Sur 0 -- -- 53
2021-02-20 16:00:00 14.9 27 Sur 41 Sur 0 -- -- 43
2021-02-20 15:00:00 14.6 22 Sur 39 Sur 0 -- -- 46
2021-02-20 14:00:00 13 22 Sudoeste 35 Sudoeste 0 -- -- 62
2021-02-20 13:00:00 11.2 14 Sur 26 Sur 0 -- -- 62
2021-02-20 12:00:00 11.2 15 Sur 35 Sudoeste 0 -- -- 64
2021-02-20 11:00:00 10.7 10 Sur 17 Sur 0 -- -- 64
2021-02-20 10:00:00 6.2 5 Sudeste 9 Sudeste 0 -- -- 85
2021-02-20 09:00:00 3.1 4 Sudeste 14 Sur 0 -- -- 91
2021-02-20 08:00:00 2.9 8 Sur 14 Sur 0 -- -- 89
2021-02-20 07:00:00 2.2 9 Sur 13 Sur 0 -- -- 92
2021-02-20 06:00:00 3.2 6 Este 10 Sudeste 0 -- -- 89
2021-02-20 05:00:00 3.6 5 Este 10 Este 0 -- -- 90
2021-02-20 04:00:00 4.3 4 Sudeste 14 Este 0 -- -- 88
2021-02-20 03:00:00 6.3 10 Sur 18 Sudoeste 0 -- -- 83
2021-02-20 02:00:00 4 6 Sudeste 16 Sur 0 -- -- 90
2021-02-20 01:00:00 4.3 5 Sudeste 15 Sur 0 -- -- 91
2021-02-20 00:00:00 5.1 6 Sur 18 Sur 0 -- -- 91
2021-02-19 23:00:00 6.5 11 Sudoeste 20 Sur 0 -- -- 86
2021-02-19 22:00:00 6.8 11 Sudoeste 15 Sudoeste 0 -- -- 83
2021-02-19 21:00:00 8.1 13 Sur 23 Sur 0 -- -- 77
2021-02-19 20:00:00 8.9 11 Sur 20 Sur 0 -- -- 74
2021-02-19 19:00:00 8.4 9 Sudoeste 19 Sudoeste 0 -- -- 85
2021-02-19 18:00:00 10.9 16 Sudoeste 30 Sudoeste 0 -- -- 76
2021-02-19 17:00:00 12.1 22 Sudoeste 39 Sudoeste 0 -- -- 66
2021-02-19 16:00:00 14.3 30 Sudoeste 43 Sudoeste 0 -- -- 58
2021-02-19 15:00:00 14.5 29 Sudoeste 46 Sudoeste 0 -- -- 52
2021-02-19 14:00:00 13.7 27 Sudoeste 39 Sudoeste 0 -- -- 61
2021-02-19 13:00:00 13 28 Sudoeste 38 Sudoeste 0 -- -- 62
2021-02-19 12:00:00 11.7 23 Sudoeste 35 Sudoeste 0 -- -- 67
2021-02-19 11:00:00 11.1 21 Sudoeste 31 Sudoeste 0 -- -- 74
2021-02-19 10:00:00 8 10 Sur 22 Sudoeste 0 -- -- 90
2021-02-19 09:00:00 7.3 10 Sur 21 Sudoeste 0 -- -- 91
2021-02-19 08:00:00 6.5 8 Sur 22 Sudoeste 0 -- -- 97
2021-02-19 07:00:00 7 20 Sudoeste 33 Sudoeste 0 -- -- 97
2021-02-19 06:00:00 7.3 7 Sur 18 Sur 0.2 -- -- 98
2021-02-19 05:00:00 7.5 5 Sudoeste 13 Sudoeste 0 -- -- 100
2021-02-19 04:00:00 7.6 7 Sur 29 Sudoeste 0.6 -- -- 100
2021-02-19 03:00:00 7.5 19 Sudoeste 30 Sudoeste 0.8 -- -- 100
2021-02-19 02:00:00 7.9 21 Sudoeste 31 Sudoeste 0.4 -- -- 100
2021-02-19 01:00:00 7.9 21 Sudoeste 31 Sudoeste 0.2 -- -- 100
2021-02-19 00:00:00 8 21 Sudoeste 32 Sudoeste 0.2 -- -- 99
2021-02-18 23:00:00 8.3 14 Sur 28 Sudoeste 0.2 -- -- 99
2021-02-18 22:00:00 8.1 19 Sudoeste 31 Sudoeste 0 -- -- 98
2021-02-18 21:00:00 8.2 12 Sur 26 Sudoeste 0 -- -- 99
2021-02-18 20:00:00 7.8 14 Sudoeste 24 Sudoeste 0.2 -- -- 99
2021-02-18 19:00:00 8.3 19 Sudoeste 29 Sudoeste 0.2 -- -- 98
2021-02-18 18:00:00 8.2 20 Sudoeste 47 Sudoeste 1.4 -- -- 100
2021-02-18 17:00:00 9.5 28 Sudoeste 53 Sudoeste 1.4 -- -- 95
2021-02-18 16:00:00 10.8 34 Sudoeste 60 Sudoeste 0 -- -- 83
2021-02-18 15:00:00 12.3 40 Sudoeste 54 Sudoeste 0 -- -- 74
2021-02-18 14:00:00 11.8 35 Sudoeste 55 Sudoeste 0 -- -- 77
2021-02-18 13:00:00 10.8 36 Sudoeste 50 Sudoeste 0 -- -- 80
2021-02-18 12:00:00 10 35 Sudoeste 61 Sudoeste 0 -- -- 83
2021-02-18 11:00:00 9.4 35 Sudoeste 50 Sudoeste 0 -- -- 84
2021-02-18 10:00:00 7.9 20 Sudoeste 32 Sudoeste 0 -- -- 88
2021-02-18 09:00:00 5.5 10 Sur 23 Sur 0 -- -- 97
2021-02-18 08:00:00 4.9 12 Sudeste 18 Sudeste 0 -- -- 98
2021-02-18 07:00:00 5.9 12 Sur 30 Sudoeste 0 -- -- 93
2021-02-18 06:00:00 6.7 17 Sudoeste 32 Sur 0 -- -- 95
2021-02-18 05:00:00 6.3 12 Sur 32 Sudoeste 0 -- -- 96
2021-02-18 04:00:00 6.1 18 Sudoeste 28 Sudoeste 0 -- -- 97
2021-02-18 03:00:00 5.9 13 Sudoeste 22 Sudoeste 0 -- -- 96
2021-02-18 02:00:00 6 9 Sur 16 Sur 0 -- -- 96
2021-02-18 01:00:00 5.6 10 Sudoeste 20 Sudoeste 0 -- -- 97
2021-02-18 00:00:00 6.6 13 Sudoeste 15 Sudoeste 0 -- -- 96
2021-02-17 23:00:00 6.9 10 Sudoeste 17 Sudoeste 0 -- -- 94
2021-02-17 22:00:00 6.4 8 Sudoeste 13 Sur 0 -- -- 99
2021-02-17 21:00:00 7.5 10 Sudoeste 15 Sudoeste 0 -- -- 98
2021-02-17 20:00:00 8.5 8 Sur 13 Sur 0 -- -- 98
2021-02-17 19:00:00 8.3 5 Sudoeste 32 Sudoeste 0 -- -- 97
2021-02-17 18:00:00 10.2 21 Sudoeste 31 Sudoeste 0 -- -- 90
2021-02-17 17:00:00 12.1 18 Sudoeste 30 Sudoeste 0 -- -- 81
2021-02-17 16:00:00 12.2 21 Sudoeste 33 Sudoeste 0 -- -- 81
2021-02-17 15:00:00 12.3 24 Sudoeste 35 Sudoeste 0 -- -- 82
2021-02-17 14:00:00 11.5 28 Sudoeste 36 Sudoeste 0.2 -- -- 86
2021-02-17 13:00:00 9.8 17 Sudoeste 23 Oeste 0 -- -- 94
2021-02-17 12:00:00 9.3 8 Sur 15 Sur 0 -- -- 98
2021-02-17 11:00:00 8.8 8 Sur 16 Sur 0 -- -- 100
2021-02-17 10:00:00 8.3 8 Sur 15 Sur 0 -- -- 100
2021-02-17 09:00:00 6.4 6 Sudoeste 12 Sudoeste 0 -- -- 100
2021-02-17 08:00:00 5 5 Sur 8 Sudeste 0 -- -- 100
2021-02-17 07:00:00 5 4 Sur 8 Sur 0 -- -- 100
2021-02-17 06:00:00 4.8 3 Sur 13 Sudoeste 0 -- -- 100
2021-02-17 05:00:00 5.9 6 Sudoeste 14 Sudoeste 0 -- -- 100
2021-02-17 04:00:00 5.1 7 Sudoeste 12 Sudoeste 0 -- -- 100
2021-02-17 03:00:00 6.5 6 Sur 14 Sur 0 -- -- 100
2021-02-17 02:00:00 7.2 7 Sudoeste 16 Sudoeste 0 -- -- 100
2021-02-17 01:00:00 7.4 10 Sudoeste 15 Sudoeste 0 -- -- 100
2021-02-17 00:00:00 7.2 10 Sudoeste 21 Sudoeste 0 -- -- 100
2021-02-16 23:00:00 6.9 14 Sudoeste 17 Sudoeste 0 -- -- 100
2021-02-16 22:00:00 6.6 9 Sudoeste 22 Sudoeste 0 -- -- 100
2021-02-16 21:00:00 7.4 18 Sudoeste 24 Sudoeste 0 -- -- 100
2021-02-16 20:00:00 7.5 17 Sudoeste 28 Sudoeste 0 -- -- 98
2021-02-16 19:00:00 8.4 21 Sudoeste 35 Sudoeste 0 -- -- 96
2021-02-16 18:00:00 9 23 Sudoeste 36 Oeste 0.2 -- -- 96
2021-02-16 17:00:00 10.3 25 Oeste 39 Sudoeste 0.2 -- -- 92
2021-02-16 16:00:00 10.9 29 Sudoeste 41 Sudoeste 0 -- -- 82
2021-02-16 15:00:00 11.2 30 Sudoeste 46 Sudoeste 0 -- -- 79
2021-02-16 14:00:00 11 30 Sudoeste 56 Sudoeste 0 -- -- 78
2021-02-16 13:00:00 11.2 34 Sudoeste 53 Sudoeste 0 -- -- 77
2021-02-16 12:00:00 10.8 34 Sudoeste 46 Sudoeste 0 -- -- 77
2021-02-16 11:00:00 9.9 27 Sudoeste 38 Sudoeste 0 -- -- 80
2021-02-16 10:00:00 6.4 19 Sudoeste 24 Sudoeste 0 -- -- 89
2021-02-16 09:00:00 0.9 5 Sudoeste 10 Sur 0 -- -- 100
2021-02-16 08:00:00 -0.2 0 Calma 5 Noroeste 0 -- -- 100
2021-02-16 07:00:00 -0.4 2 Noroeste 6 Noroeste 0 -- -- 100
2021-02-16 06:00:00 -0.1 0 Calma 4 Oeste 0 -- -- 100
2021-02-16 05:00:00 0.4 0 Calma 6 Noroeste 0 -- -- 100
2021-02-16 04:00:00 1 0 Calma 3 Sudeste 0 -- -- 99
2021-02-16 03:00:00 1.9 0 Calma 6 Sudeste 0 -- -- 98
2021-02-16 02:00:00 3.6 5 Sudeste 6 Sudeste 0 -- -- 96
2021-02-16 01:00:00 2.8 0 Calma 4 Este 0 -- -- 97
2021-02-16 00:00:00 5.3 4 Este 11 Sudeste 0 -- -- 94
2021-02-15 23:00:00 6 4 Este 10 Sudeste 0 -- -- 93
2021-02-15 22:00:00 5.3 3 Nordeste 8 Sudeste 0 -- -- 94
2021-02-15 21:00:00 5.8 0 Calma 5 Este 0 -- -- 92
2021-02-15 20:00:00 7.4 2 Noroeste 5 Oeste 0 -- -- 90
2021-02-15 19:00:00 11.6 2 Sur 9 Sudeste 0 -- -- 76
2021-02-15 18:00:00 16.3 9 Sudeste 19 Sur 0 -- -- 58
2021-02-15 17:00:00 17.8 8 Sur 16 Sudeste 0 -- -- 49
2021-02-15 16:00:00 16.5 7 Sudeste 16 Sudeste 0 -- -- 54
2021-02-15 15:00:00 15.3 11 Sudeste 18 Sudeste 0 -- -- 58
2021-02-15 14:00:00 14.1 6 Sudeste 15 Sudeste 0 -- -- 65
2021-02-15 13:00:00 12.6 6 Este 15 Sudeste 0 -- -- 71
2021-02-15 12:00:00 10.8 9 Sudeste 16 Sudeste 0 -- -- 75
2021-02-15 11:00:00 9.1 7 Este 14 Este 0 -- -- 81
2021-02-15 10:00:00 6 6 Este 12 Este 0 -- -- 90
2021-02-15 09:00:00 2.5 5 Este 9 Este 0 -- -- 100
2021-02-15 08:00:00 1.1 3 Nordeste 7 Este 0 -- -- 100
2021-02-15 07:00:00 0.6 2 Este 4 Este 0 -- -- 100
2021-02-15 06:00:00 0.8 2 Nordeste 4 Nordeste 0 -- -- 100
2021-02-15 05:00:00 1.2 0 Calma 5 Norte 0 -- -- 100
2021-02-15 04:00:00 1.4 0 Calma 6 Noroeste 0 -- -- 100
2021-02-15 03:00:00 1.7 0 Calma 8 Sur 0 -- -- 100
2021-02-15 02:00:00 2.4 3 Sur 6 Sur 0 -- -- 100
2021-02-15 01:00:00 2.8 0 Calma 5 Sudeste 0 -- -- 100
2021-02-15 00:00:00 3.6 0 Calma 4 Noroeste 0 -- -- 100
2021-02-14 23:00:00 4.3 0 Calma 5 Este 0 -- -- 99
2021-02-14 22:00:00 5.3 0 Calma 8 Este 0 -- -- 96
2021-02-14 21:00:00 7.8 4 Este 7 Este 0 -- -- 94
2021-02-14 20:00:00 7.7 0 Calma 3 Sur 0 -- -- 95
2021-02-14 19:00:00 10 0 Calma 8 Sur 0 -- -- 90
2021-02-14 18:00:00 13.3 3 Sur 14 Sur 0 -- -- 76
2021-02-14 17:00:00 14.6 11 Sur 17 Sur 0 -- -- 66
2021-02-14 16:00:00 15.7 7 Sur 13 Sudeste 0 -- -- 65
2021-02-14 15:00:00 13.4 3 Nordeste 11 Sudeste 0 -- -- 77
2021-02-14 14:00:00 12.9 4 Sudeste 8 Sudeste 0 -- -- 78
2021-02-14 13:00:00 10.9 4 Este 9 Sudeste 0 -- -- 85
2021-02-14 12:00:00 8.5 5 Sudeste 9 Sudeste 0 -- -- 99
2021-02-14 11:00:00 4.6 7 Sudeste 12 Sudeste 0 -- -- 100
2021-02-14 10:00:00 3.4 4 Este 8 Este 0 -- -- 100
2021-02-14 09:00:00 2.8 4 Este 7 Sudeste 0 -- -- 100
2021-02-14 08:00:00 2.3 3 Este 6 Este 0 -- -- 100
2021-02-14 07:00:00 1.1 0 Calma 6 Este 0 -- -- 100
2021-02-14 06:00:00 1.6 4 Este 8 Este 0 -- -- 100
2021-02-14 05:00:00 0.5 2 Norte 4 Norte 0 -- -- 100
2021-02-14 04:00:00 0.8 2 Norte 5 Noroeste 0 -- -- 100
2021-02-14 03:00:00 2 2 Este 7 Este 0 -- -- 100
2021-02-14 02:00:00 2.3 0 Calma 3 Oeste 0 -- -- 100
2021-02-14 01:00:00 3.3 0 Calma 4 Sur 0 -- -- 100
2021-02-14 00:00:00 4.4 3 Sur 13 Sudoeste 0 -- -- 98
2021-02-13 23:00:00 6.3 13 Sudoeste 16 Sudoeste 0 -- -- 96
2021-02-13 22:00:00 6.5 6 Sur 10 Sur 0 -- -- 96
2021-02-13 21:00:00 6.1 3 Sudoeste 9 Sur 0 -- -- 96
2021-02-13 20:00:00 8 6 Sur 10 Sur 0 -- -- 93
2021-02-13 19:00:00 9.5 4 Sudoeste 5 Sur 0 -- -- 89
2021-02-13 18:00:00 12.4 4 Sur 19 Oeste 0 -- -- 74
2021-02-13 17:00:00 12.2 13 Oeste 24 Oeste 0 -- -- 72
2021-02-13 16:00:00 13.3 10 Oeste 19 Sudoeste 0 -- -- 66
2021-02-13 15:00:00 12.6 13 Sudoeste 23 Sudoeste 0 -- -- 69
2021-02-13 14:00:00 11.8 11 Sudoeste 20 Oeste 0 -- -- 69
2021-02-13 13:00:00 10.8 12 Sudoeste 19 Sudoeste 0 -- -- 76
2021-02-13 08:00:00 1.3 5 Nordeste 6 Sudoeste 0 -- -- 100
2021-02-13 07:00:00 1.8 0 Calma 10 Sudoeste 0 -- -- 100
2021-02-13 06:00:00 2.8 10 Sudoeste 16 Sudoeste 0 -- -- 100
2021-02-13 05:00:00 2.9 11 Sudoeste 21 Sudoeste 0 -- -- 99
2021-02-13 04:00:00 2.4 5 Sudoeste 10 Sudoeste 0 -- -- 100
2021-02-13 03:00:00 2.5 3 Sudeste 8 Sur 0 -- -- 100
2021-02-13 02:00:00 2.9 0 Calma 11 Sudoeste 0 -- -- 99
2021-02-13 01:00:00 3.1 0 Calma 8 Oeste 0 -- -- 97
2021-02-13 00:00:00 3.5 0 Calma 9 Sudoeste 0 -- -- 96
2021-02-12 23:00:00 4.2 0 Calma 12 Sudoeste 0 -- -- 93
2021-02-12 22:00:00 4.9 13 Oeste 15 Oeste 0 -- -- 91
2021-02-12 21:00:00 4.8 8 Noroeste 15 Oeste 0 -- -- 90
2021-02-12 20:00:00 6.3 13 Noroeste 15 Noroeste 0 -- -- 87
2021-02-12 19:00:00 8.2 15 Noroeste 21 Oeste 0 -- -- 81
2021-02-12 18:00:00 11.2 14 Noroeste 35 Noroeste 0 -- -- 71
2021-02-12 17:00:00 12.3 26 Noroeste 39 Oeste 0 -- -- 64
2021-02-12 16:00:00 12.6 28 Oeste 43 Oeste 0 -- -- 69
2021-02-12 15:00:00 12.7 28 Oeste 41 Oeste 0 -- -- 69
2021-02-12 14:00:00 11.7 28 Oeste 45 Noroeste 0 -- -- 72
2021-02-12 13:00:00 11.2 29 Oeste 44 Oeste 0 -- -- 76
2021-02-12 12:00:00 10.2 28 Oeste 41 Oeste 0 -- -- 80
2021-02-12 11:00:00 9.3 29 Oeste 39 Oeste 0 -- -- 89
2021-02-12 10:00:00 7.5 26 Oeste 35 Oeste 0 -- -- 93
2021-02-12 09:00:00 6.5 19 Oeste 34 Oeste 0 -- -- 96
2021-02-12 08:00:00 7.3 21 Oeste 30 Sudoeste 0 -- -- 95
2021-02-12 07:00:00 7.2 16 Oeste 39 Sudoeste 0 -- -- 99
2021-02-12 06:00:00 8 25 Sudoeste 46 Oeste 0.4 -- -- 100
2021-02-12 05:00:00 8.7 26 Oeste 38 Sudoeste 0.6 -- -- 100
2021-02-12 04:00:00 8.8 24 Sudoeste 37 Sudoeste 1 -- -- 100
2021-02-12 03:00:00 8.9 28 Sudoeste 42 Sudoeste 2 -- -- 100
2021-02-12 02:00:00 9.4 32 Sudoeste 47 Sudoeste 0.2 -- -- 98
2021-02-12 01:00:00 9.3 14 Sur 30 Sudoeste 0.2 -- -- 97
2021-02-12 00:00:00 9.2 15 Sudoeste 25 Sur 0 -- -- 95
2021-02-11 23:00:00 9.6 15 Sudoeste 27 Sur 0 -- -- 94
2021-02-11 22:00:00 9.9 15 Sudoeste 28 Sudoeste 0 -- -- 94
2021-02-11 21:00:00 10.7 14 Sur 27 Sudoeste 0 -- -- 92
2021-02-11 20:00:00 10.7 12 Sudoeste 20 Sudoeste 0 -- -- 91
2021-02-11 19:00:00 11.4 7 Sur 24 Sudoeste 0 -- -- 89
2021-02-11 18:00:00 12.4 17 Sudoeste 38 Sudoeste 0 -- -- 87
2021-02-11 17:00:00 13.4 26 Sudoeste 32 Sudoeste 0 -- -- 82
2021-02-11 16:00:00 13 23 Sudoeste 33 Sudoeste 0 -- -- 87
2021-02-11 15:00:00 12.8 21 Sudoeste 30 Oeste 0 -- -- 89
2021-02-11 14:00:00 11.9 18 Oeste 27 Sudoeste 0 -- -- 91
2021-02-11 13:00:00 11.5 18 Sudoeste 29 Sudoeste 0 -- -- 92
2021-02-11 12:00:00 11 21 Sudoeste 30 Sudoeste 0 -- -- 93
2021-02-11 11:00:00 9.4 16 Oeste 24 Sudoeste 0 -- -- 100
2021-02-11 10:00:00 8.7 15 Sudoeste 22 Sudoeste 0 -- -- 100
2021-02-11 09:00:00 8 15 Sudoeste 22 Sudoeste 0 -- -- 100
2021-02-11 08:00:00 7.1 9 Sudoeste 17 Sudoeste 0 -- -- 100
2021-02-11 07:00:00 6.7 10 Sudoeste 16 Sudoeste 0 -- -- 100
2021-02-11 06:00:00 6.3 9 Sudoeste 18 Sudoeste 0.2 -- -- 100
2021-02-11 05:00:00 5.9 12 Sudoeste 18 Sudoeste 0.2 -- -- 100
2021-02-11 04:00:00 5.8 9 Sudoeste 17 Sudoeste 0 -- -- 99
2021-02-11 03:00:00 5.8 12 Sudoeste 19 Sur 0 -- -- 95
2021-02-11 02:00:00 5.9 13 Sudoeste 28 Sudoeste 0 -- -- 95
2021-02-11 01:00:00 6.3 18 Sudoeste 29 Sudoeste 0 -- -- 91
2021-02-11 00:00:00 6.2 20 Sudoeste 27 Sudoeste 0 -- -- 92
2021-02-10 23:00:00 6.1 16 Sudoeste 22 Sudoeste 0 -- -- 88
2021-02-10 22:00:00 5 10 Sudoeste 21 Oeste 0 -- -- 91
2021-02-10 21:00:00 5.7 16 Oeste 29 Oeste 0 -- -- 88
2021-02-10 20:00:00 6.5 16 Sudoeste 22 Sudoeste 0 -- -- 86
2021-02-10 19:00:00 7.1 18 Sudoeste 27 Sudoeste 0 -- -- 81
2021-02-10 18:00:00 8.4 12 Sudoeste 30 Sudoeste 0 -- -- 79
2021-02-10 17:00:00 9.6 20 Sudoeste 32 Sudoeste 0 -- -- 71
2021-02-10 16:00:00 10 23 Oeste 34 Oeste 0 -- -- 67
2021-02-10 15:00:00 9.6 25 Oeste 37 Oeste 0 -- -- 67
2021-02-10 14:00:00 8.8 23 Sudoeste 47 Sudoeste 0 -- -- 70
2021-02-10 13:00:00 8 24 Sudoeste 35 Sudoeste 0 -- -- 76
2021-02-10 12:00:00 7.7 23 Sudoeste 38 Oeste 0 -- -- 80
2021-02-10 11:00:00 5.9 28 Oeste 40 Oeste 0 -- -- 80
2021-02-10 10:00:00 4.4 22 Oeste 29 Oeste 0 -- -- 88
2021-02-10 09:00:00 2.4 19 Oeste 28 Oeste 0 -- -- 94
2021-02-10 08:00:00 1.3 17 Oeste 37 Oeste 0 -- -- 98
2021-02-10 07:00:00 2.3 24 Oeste 32 Oeste 0 -- -- 96
2021-02-10 06:00:00 2.1 19 Oeste 26 Oeste 0 -- -- 96
2021-02-10 05:00:00 2.7 19 Oeste 42 Oeste 0 -- -- 97
2021-02-10 04:00:00 3.6 23 Oeste 63 Sudoeste 0 -- -- 98
2021-02-10 03:00:00 3.9 34 Sudoeste 54 Sudoeste 1 -- -- 100
2021-02-10 02:00:00 4 19 Sudoeste 32 Sudoeste 0 -- -- 99
2021-02-10 01:00:00 3.9 24 Sudoeste 41 Sudoeste 0 -- -- 97
2021-02-10 00:00:00 4 23 Sudoeste 40 Sudoeste 0.2 -- -- 100
2021-02-09 23:00:00 4.2 27 Sudoeste 38 Sudoeste 0 -- -- 97
2021-02-09 22:00:00 3.5 19 Sudoeste 39 Sudoeste 0 -- -- 98
2021-02-09 21:00:00 3.5 26 Sudoeste 41 Sudoeste 0 -- -- 100
2021-02-09 20:00:00 3.2 22 Sudoeste 36 Sudoeste 0.8 -- -- 100
2021-02-09 19:00:00 3.5 27 Sudoeste 44 Sudoeste 0 -- -- 97
2021-02-09 18:00:00 3.6 27 Sudoeste 54 Sudoeste 0.2 -- -- 98
2021-02-09 17:00:00 5.7 28 Sudoeste 51 Sudoeste 0 -- -- 89
2021-02-09 16:00:00 5.5 34 Sudoeste 49 Sudoeste 0 -- -- 90
2021-02-09 15:00:00 5.9 33 Sudoeste 43 Sudoeste 0 -- -- 91
2021-02-09 14:00:00 4.1 26 Sudoeste 40 Sudoeste 1.2 -- -- 97
2021-02-09 13:00:00 4.8 28 Oeste 67 Oeste 1.6 -- -- 96
2021-02-09 12:00:00 5.2 43 Oeste 81 Sudoeste 4 -- -- 100
2021-02-09 11:00:00 6.3 41 Sudoeste 60 Sudoeste 0.8 -- -- 100
2021-02-09 10:00:00 6.3 37 Sudoeste 51 Sudoeste 1.2 -- -- 100
2021-02-09 09:00:00 6.2 27 Sudoeste 51 Sudoeste 0.2 -- -- 97
2021-02-09 08:00:00 6.1 29 Sudoeste 46 Sudoeste 0 -- -- 96
2021-02-09 07:00:00 5.6 22 Sur 36 Sur 0 -- -- 96
2021-02-09 06:00:00 4.9 14 Sur 40 Sudoeste 0 -- -- 97
2021-02-09 05:00:00 4.5 15 Sudoeste 32 Sur 0 -- -- 99
2021-02-09 04:00:00 4.2 17 Sudoeste 48 Sudoeste 0.4 -- -- 100
2021-02-09 03:00:00 4.4 30 Sudoeste 46 Sudoeste 0.8 -- -- 100
2021-02-09 02:00:00 4.9 27 Sudoeste 41 Sudoeste 0.6 -- -- 99
2021-02-09 01:00:00 5 25 Sudoeste 36 Sudoeste 0 -- -- 97
2021-02-09 00:00:00 5.2 26 Sudoeste 46 Sudoeste 0 -- -- 99
2021-02-08 23:00:00 4.8 27 Sudoeste 39 Sudoeste 0 -- -- 99
2021-02-08 22:00:00 4.1 20 Sudoeste 32 Sudoeste 0 -- -- 99
2021-02-08 21:00:00 4.1 21 Sudoeste 33 Sudoeste 0 -- -- 97
2021-02-08 20:00:00 4.6 23 Sudoeste 38 Sudoeste 0 -- -- 94
2021-02-08 19:00:00 5.3 21 Sudoeste 47 Sudoeste 0 -- -- 93
2021-02-08 18:00:00 6.6 34 Sudoeste 51 Oeste 0 -- -- 88
2021-02-08 17:00:00 7.7 34 Oeste 48 Sudoeste 0 -- -- 86
2021-02-08 16:00:00 7.2 36 Oeste 51 Sudoeste 0 -- -- 89
2021-02-08 15:00:00 7.6 42 Sudoeste 58 Sudoeste 0 -- -- 87
2021-02-08 14:00:00 7.8 39 Sudoeste 53 Sudoeste 0 -- -- 84
2021-02-08 13:00:00 7.5 41 Sudoeste 57 Sudoeste 0 -- -- 86
2021-02-08 12:00:00 7.2 41 Sudoeste 52 Sudoeste 0 -- -- 88
2021-02-08 11:00:00 5.5 31 Sudoeste 65 Sudoeste 0 -- -- 95
2021-02-08 10:00:00 5.5 36 Sudoeste 50 Sudoeste 0 -- -- 94
2021-02-08 09:00:00 3.9 30 Sudoeste 45 Sudoeste 0 -- -- 99
2021-02-08 08:00:00 3.3 24 Sudoeste 33 Sudoeste 0 -- -- 99
2021-02-08 07:00:00 3.8 24 Sudoeste 37 Sudoeste 0 -- -- 99
2021-02-08 06:00:00 5 27 Sudoeste 48 Sudoeste 0 -- -- 99
2021-02-08 05:00:00 4.6 32 Sudoeste 44 Sudoeste 0 -- -- 100
2021-02-08 04:00:00 5.2 26 Sudoeste 41 Sudoeste 0 -- -- 100
2021-02-08 03:00:00 5.6 26 Sudoeste 42 Sudoeste 0.2 -- -- 100
2021-02-08 02:00:00 5.2 21 Sudoeste 29 Sudoeste 0.6 -- -- 100
2021-02-08 01:00:00 4.9 20 Sudoeste 31 Sudoeste 1.6 -- -- 100
2021-02-08 00:00:00 4.5 13 Sudoeste 29 Sudoeste 0.2 -- -- 100
2021-02-07 23:00:00 4.5 21 Sudoeste 28 Sudoeste 0 -- -- 100
2021-02-07 22:00:00 4.1 17 Sudoeste 31 Sudoeste 0 -- -- 99
2021-02-07 21:00:00 3.9 23 Sudoeste 48 Sudoeste 0 -- -- 98
2021-02-07 20:00:00 3.7 24 Sudoeste 39 Oeste 0 -- -- 97
2021-02-07 19:00:00 3.6 29 Sudoeste 46 Sudoeste 0 -- -- 97
2021-02-07 18:00:00 3.6 28 Sudoeste 41 Oeste 0.2 -- -- 97
2021-02-07 17:00:00 3.7 29 Sudoeste 41 Sudoeste 0.2 -- -- 95
2021-02-07 16:00:00 4.8 29 Sudoeste 37 Sudoeste 0 -- -- 88
2021-02-07 15:00:00 6.1 26 Sudoeste 34 Sudoeste 0 -- -- 83
2021-02-07 14:00:00 6 22 Sudoeste 30 Sudoeste 0 -- -- 80
2021-02-07 13:00:00 5.3 14 Sudoeste 18 Oeste 0 -- -- 75
2021-02-07 12:00:00 5.2 7 Sudoeste 13 Oeste 0 -- -- 72
2021-02-07 11:00:00 5.3 4 Sudoeste 6 Sudoeste 0 -- -- 73
2021-02-07 10:00:00 1.9 0 Calma 3 Sudoeste 0 -- -- 89
2021-02-07 09:00:00 0.3 0 Calma 5 Noroeste 0 -- -- 93
2021-02-07 08:00:00 -0.2 4 Norte 7 Noroeste 0 -- -- 95
2021-02-07 07:00:00 -0.1 3 Norte 7 Noroeste 0 -- -- 93
2021-02-07 06:00:00 0.4 3 Noroeste 7 Noroeste 0 -- -- 92
2021-02-07 05:00:00 1.1 2 Sudeste 8 Oeste 0 -- -- 92
2021-02-07 04:00:00 1 2 Noroeste 9 Noroeste 0 -- -- 95
2021-02-07 03:00:00 2.2 3 Noroeste 7 Oeste 0 -- -- 98
2021-02-07 02:00:00 2.9 2 Nordeste 5 Noroeste 0 -- -- 97
2021-02-07 01:00:00 3.3 0 Calma 6 Sudeste 0 -- -- 93
2021-02-07 00:00:00 3.7 4 Sudeste 7 Sudeste 0 -- -- 94
2021-02-06 23:00:00 4.2 2 Sudoeste 9 Sudeste 0 -- -- 96
2021-02-06 22:00:00 5 3 Sudeste 5 Este 0 -- -- 93
2021-02-06 21:00:00 5 2 Norte 4 Nordeste 0 -- -- 96
2021-02-06 20:00:00 5.1 3 Sudeste 15 Este 0.2 -- -- 94
2021-02-06 19:00:00 5.7 4 Este 14 Sudeste 0 -- -- 93
2021-02-06 18:00:00 6.2 9 Sudeste 16 Sudeste 0 -- -- 93
2021-02-06 17:00:00 7 6 Sudeste 9 Sudeste 0 -- -- 88
2021-02-06 16:00:00 7.1 4 Nordeste 9 Nordeste 0.2 -- -- 85
2021-02-06 15:00:00 6.5 2 Este 10 Norte 0.4 -- -- 92
2021-02-06 14:00:00 6.3 6 Nordeste 10 Nordeste 0 -- -- 88
2021-02-06 13:00:00 6.6 4 Nordeste 12 Nordeste 0 -- -- 89
2021-02-06 12:00:00 6.6 3 Este 10 Nordeste 0 -- -- 90
2021-02-06 11:00:00 6.2 4 Este 17 Nordeste 0 -- -- 91
2021-02-06 10:00:00 5.9 12 Nordeste 22 Nordeste 0 -- -- 91
2021-02-06 09:00:00 5.6 10 Nordeste 22 Nordeste 0.2 -- -- 94
2021-02-06 08:00:00 5.7 12 Nordeste 31 Nordeste 0.2 -- -- 97
2021-02-06 07:00:00 5.8 13 Nordeste 23 Nordeste 0.8 -- -- 100
2021-02-06 06:00:00 6.1 8 Este 21 Nordeste 5 -- -- 100
2021-02-06 05:00:00 6.8 13 Nordeste 31 Este 1.4 -- -- 99
2021-02-06 04:00:00 7.1 14 Este 31 Este 1.4 -- -- 99
2021-02-06 03:00:00 7.7 12 Este 30 Este 0 -- -- 98
2021-02-06 02:00:00 7.7 8 Este 24 Nordeste 0 -- -- 96
2021-02-06 01:00:00 7.7 12 Este 33 Este 0 -- -- 95
2021-02-06 00:00:00 7.9 17 Este 34 Nordeste 0 -- -- 94
2021-02-05 23:00:00 8 16 Este 35 Este 0 -- -- 92
2021-02-05 22:00:00 8 16 Nordeste 31 Nordeste 0 -- -- 92
2021-02-05 21:00:00 8.4 15 Nordeste 39 Este 0 -- -- 91
2021-02-05 20:00:00 8.7 16 Nordeste 35 Nordeste 0 -- -- 90
2021-02-05 19:00:00 9.2 15 Nordeste 31 Este 0 -- -- 88
2021-02-05 18:00:00 10.7 12 Nordeste 26 Nordeste 0 -- -- 84
2021-02-05 17:00:00 11.4 12 Nordeste 21 Nordeste 0 -- -- 82
2021-02-05 16:00:00 11.6 10 Nordeste 18 Nordeste 0 -- -- 81
2021-02-05 15:00:00 11.5 10 Nordeste 18 Nordeste 0 -- -- 81
2021-02-05 14:00:00 10.6 11 Nordeste 17 Nordeste 0 -- -- 83
2021-02-05 13:00:00 9.5 4 Nordeste 13 Este 0 -- -- 90
2021-02-05 12:00:00 8 7 Este 16 Este 0 -- -- 98
2021-02-05 11:00:00 6.7 7 Este 16 Sudeste 0.4 -- -- 100
2021-02-05 10:00:00 6.1 6 Este 14 Este 0.6 -- -- 100
2021-02-05 09:00:00 5.8 3 Este 16 Nordeste 0 -- -- 99
2021-02-05 08:00:00 5.5 9 Nordeste 22 Este 0 -- -- 99
2021-02-05 07:00:00 5.5 8 Nordeste 17 Este 0.2 -- -- 100
2021-02-05 06:00:00 5.4 6 Nordeste 15 Nordeste 0 -- -- 100
2021-02-05 05:00:00 5.3 9 Nordeste 16 Nordeste 0.6 -- -- 100
2021-02-05 04:00:00 5.2 8 Nordeste 14 Nordeste 0 -- -- 100
2021-02-05 03:00:00 5.1 6 Nordeste 12 Nordeste 1.8 -- -- 100
2021-02-05 02:00:00 5.1 7 Nordeste 12 Nordeste 0 -- -- 100
2021-02-05 01:00:00 4.4 6 Norte 11 Norte 0 -- -- 100
2021-02-05 00:00:00 5.2 5 Nordeste 8 Noroeste 0 -- -- 100
2021-02-04 23:00:00 5.1 5 Noroeste 10 Noroeste 0.2 -- -- 100
2021-02-04 22:00:00 5 2 Este 7 Sudeste 0 -- -- 100
2021-02-04 21:00:00 5 2 Este 9 Sur 0 -- -- 100
2021-02-04 20:00:00 5.1 6 Sudeste 10 Sudeste 0.4 -- -- 100
2021-02-04 19:00:00 5.4 6 Sudeste 10 Sudeste 0.2 -- -- 99
2021-02-04 18:00:00 5.6 2 Este 7 Este 0.8 -- -- 97
2021-02-04 17:00:00 5.9 2 Nordeste 8 Este 0.6 -- -- 97
2021-02-04 16:00:00 5.7 4 Nordeste 10 Nordeste 1 -- -- 97
2021-02-04 15:00:00 5.2 6 Nordeste 10 Nordeste 3 -- -- 99
2021-02-04 14:00:00 5.2 6 Noroeste 15 Noroeste 2.6 -- -- 98
2021-02-04 13:00:00 5.7 13 Noroeste 19 Noroeste 2 -- -- 94
2021-02-04 12:00:00 6.4 5 Sur 11 Sudeste 1.4 -- -- 99
2021-02-04 11:00:00 6.9 7 Sudeste 10 Sudeste 0.4 -- -- 98
2021-02-04 10:00:00 6.5 5 Este 8 Este 0.2 -- -- 98
2021-02-04 09:00:00 6 5 Sudoeste 12 Sur 0 -- -- 100
2021-02-04 08:00:00 5.7 7 Sudoeste 12 Sudoeste 0 -- -- 100
2021-02-04 07:00:00 5.2 4 Sur 10 Sur 0 -- -- 100
2021-02-04 06:00:00 6 5 Sur 12 Sur 0 -- -- 100
2021-02-04 05:00:00 5.4 4 Sudoeste 8 Sudoeste 0 -- -- 99
2021-02-04 04:00:00 6.4 7 Sudoeste 12 Sudoeste 0 -- -- 97
2021-02-04 03:00:00 7 8 Sur 13 Sur 0 -- -- 97
2021-02-04 02:00:00 6.7 7 Sudoeste 13 Sudoeste 0 -- -- 97
2021-02-04 01:00:00 5.6 4 Sudeste 14 Sur 0 -- -- 98
2021-02-04 00:00:00 6.3 8 Sur 21 Sur 0 -- -- 97
2021-02-03 23:00:00 6.4 14 Sudoeste 28 Sudoeste 0 -- -- 97
2021-02-03 22:00:00 6.6 21 Sudoeste 29 Sudoeste 0 -- -- 95
2021-02-03 21:00:00 7.5 18 Sudoeste 26 Sudoeste 0 -- -- 93
2021-02-03 20:00:00 8.6 12 Sur 22 Sur 0 -- -- 92
2021-02-03 19:00:00 9 10 Sur 21 Sudoeste 0 -- -- 89
2021-02-03 18:00:00 9.7 11 Sur 26 Sur 0 -- -- 84
2021-02-03 17:00:00 10.8 19 Sudoeste 44 Sudoeste 0 -- -- 78
2021-02-03 16:00:00 11 23 Sudoeste 40 Sudoeste 0 -- -- 77
2021-02-03 15:00:00 11.6 24 Sudoeste 39 Sudoeste 0 -- -- 72
2021-02-03 14:00:00 11 26 Sudoeste 40 Sudoeste 0 -- -- 71
2021-02-03 13:00:00 10.1 34 Sudoeste 45 Oeste 0 -- -- 76
2021-02-03 12:00:00 10.3 29 Sudoeste 41 Oeste 0 -- -- 80
2021-02-03 11:00:00 9.8 29 Sudoeste 45 Sudoeste 0 -- -- 85
2021-02-03 10:00:00 8.9 30 Sudoeste 41 Sudoeste 0 -- -- 91
2021-02-03 09:00:00 8.3 27 Sudoeste 51 Sudoeste 0 -- -- 94
2021-02-03 08:00:00 8.5 29 Sudoeste 55 Sudoeste 0 -- -- 95
2021-02-03 07:00:00 9 35 Sudoeste 55 Sudoeste 0 -- -- 92
2021-02-03 06:00:00 9 37 Sudoeste 55 Sudoeste 0 -- -- 91
2021-02-03 05:00:00 9.3 33 Sudoeste 47 Sudoeste 0 -- -- 89
2021-02-03 04:00:00 8.7 22 Sudoeste 40 Sudoeste 0 -- -- 90
2021-02-03 03:00:00 8.6 23 Sudoeste 38 Sudoeste 0 -- -- 90
2021-02-03 02:00:00 8.6 21 Sur 42 Sudoeste 0 -- -- 88
2021-02-03 01:00:00 9 26 Sudoeste 46 Sudoeste 0 -- -- 85
2021-02-03 00:00:00 9.2 15 Sur 34 Sudoeste 0 -- -- 84
2021-02-02 23:00:00 9.4 20 Sur 39 Sudoeste 0 -- -- 84
2021-02-02 22:00:00 9.6 18 Sur 34 Sudoeste 0 -- -- 83
2021-02-02 21:00:00 9.6 19 Sudoeste 33 Sur 0 -- -- 84
2021-02-02 20:00:00 9.4 15 Sudoeste 49 Sudoeste 0 -- -- 86
2021-02-02 19:00:00 9.8 39 Sudoeste 53 Sudoeste 0 -- -- 84
2021-02-02 18:00:00 10.3 32 Sudoeste 44 Sudoeste 0 -- -- 83
2021-02-02 17:00:00 10.9 28 Sudoeste 47 Sudoeste 0 -- -- 83
2021-02-02 16:00:00 11.7 31 Sudoeste 44 Sudoeste 0 -- -- 80
2021-02-02 15:00:00 11.2 33 Sudoeste 60 Sudoeste 0 -- -- 82
2021-02-02 14:00:00 11.6 39 Sudoeste 62 Sudoeste 0 -- -- 80
2021-02-02 13:00:00 10.7 34 Sudoeste 45 Sudoeste 0.2 -- -- 83
2021-02-02 12:00:00 10.8 25 Sudoeste 40 Sudoeste 0 -- -- 84
2021-02-02 11:00:00 10.7 24 Sudoeste 40 Sudoeste 0 -- -- 88
2021-02-02 10:00:00 8.8 29 Sudoeste 43 Sudoeste 0 -- -- 94
2021-02-02 09:00:00 7.8 26 Sudoeste 37 Sudoeste 0 -- -- 98
2021-02-02 08:00:00 8.1 21 Sudoeste 40 Sudoeste 0 -- -- 98
2021-02-02 07:00:00 8 17 Sudoeste 34 Sudoeste 0 -- -- 99
2021-02-02 06:00:00 9 21 Sudoeste 46 Sudoeste 0 -- -- 98
2021-02-02 05:00:00 9.2 27 Sudoeste 44 Sudoeste 0 -- -- 98
2021-02-02 04:00:00 9 24 Sudoeste 35 Sudoeste 0 -- -- 98
2021-02-02 03:00:00 9.2 24 Sudoeste 35 Sudoeste 0 -- -- 98
2021-02-02 02:00:00 9.2 28 Sudoeste 46 Sudoeste 0 -- -- 97
2021-02-02 01:00:00 8.9 32 Sudoeste 50 Sudoeste 0 -- -- 98
2021-02-02 00:00:00 8.4 32 Sudoeste 53 Sudoeste 0 -- -- 97
2021-02-01 23:00:00 8.2 26 Sudoeste 38 Sudoeste 0 -- -- 97
2021-02-01 22:00:00 8.2 24 Sudoeste 43 Oeste 0 -- -- 92
2021-02-01 21:00:00 9 26 Sudoeste 34 Sudoeste 0 -- -- 89
2021-02-01 20:00:00 8.5 23 Sudoeste 33 Sudoeste 0 -- -- 89
2021-02-01 19:00:00 9.3 24 Sudoeste 40 Sudoeste 0 -- -- 85
2021-02-01 18:00:00 11.7 31 Sudoeste 51 Sudoeste 0 -- -- 77
2021-02-01 17:00:00 13 29 Oeste 51 Oeste 0 -- -- 73
2021-02-01 16:00:00 13.6 34 Sudoeste 60 Sudoeste 0 -- -- 71
2021-02-01 15:00:00 13.1 40 Oeste 55 Oeste 0 -- -- 72
2021-02-01 14:00:00 12.8 37 Sudoeste 59 Sudoeste 0 -- -- 76
2021-02-01 13:00:00 12.9 39 Sudoeste 50 Sudoeste 0 -- -- 78
2021-02-01 12:00:00 11.2 29 Oeste 48 Oeste 0 -- -- 81
2021-02-01 11:00:00 9.9 32 Oeste 46 Oeste 0 -- -- 85
2021-02-01 10:00:00 7.7 35 Oeste 46 Oeste 0 -- -- 89
2021-02-01 09:00:00 5.7 29 Oeste 39 Sudoeste 0 -- -- 95
2021-02-01 08:00:00 5 22 Oeste 36 Oeste 0 -- -- 95
2021-02-01 07:00:00 5.6 25 Oeste 32 Oeste 0 -- -- 94
2021-02-01 06:00:00 5.8 19 Oeste 32 Oeste 0 -- -- 91
2021-02-01 05:00:00 5.1 16 Sudoeste 33 Sudoeste 0 -- -- 93
2021-02-01 04:00:00 5.7 27 Sudoeste 39 Sudoeste 0 -- -- 90
2021-02-01 03:00:00 6.3 29 Oeste 45 Oeste 0 -- -- 88
2021-02-01 02:00:00 7 34 Oeste 44 Sudoeste 0 -- -- 85
2021-02-01 01:00:00 7.7 29 Oeste 48 Oeste 0 -- -- 84
2021-02-01 00:00:00 8.7 33 Oeste 49 Oeste 0 -- -- 85